sensor_id;sensor_type;location;lat;lon;timestamp;P1;durP1;ratioP1;P2;durP2;ratioP2
53666;SDS011;39568;51.026;5.468;2023-05-07T00:01:26;6.85;;;6.35;;
53666;SDS011;39568;51.026;5.468;2023-05-07T00:04:11;7.35;;;6.68;;
53666;SDS011;39568;51.026;5.468;2023-05-07T00:06:39;10.90;;;6.78;;
53666;SDS011;39568;51.026;5.468;2023-05-07T00:09:10;7.43;;;6.50;;
53666;SDS011;39568;51.026;5.468;2023-05-07T00:11:37;7.32;;;6.72;;
53666;SDS011;39568;51.026;5.468;2023-05-07T00:14:05;8.38;;;7.57;;
53666;SDS011;39568;51.026;5.468;2023-05-07T00:16:32;10.73;;;6.55;;
53666;SDS011;39568;51.026;5.468;2023-05-07T00:19:09;10.30;;;7.65;;
53666;SDS011;39568;51.026;5.468;2023-05-07T00:21:38;7.60;;;7.00;;
53666;SDS011;39568;51.026;5.468;2023-05-07T00:24:09;10.07;;;7.43;;
53666;SDS011;39568;51.026;5.468;2023-05-07T00:26:39;8.52;;;7.32;;
53666;SDS011;39568;51.026;5.468;2023-05-07T00:29:07;8.55;;;7.05;;
53666;SDS011;39568;51.026;5.468;2023-05-07T00:31:34;7.18;;;6.57;;
53666;SDS011;39568;51.026;5.468;2023-05-07T00:34:01;8.43;;;6.45;;
53666;SDS011;39568;51.026;5.468;2023-05-07T00:36:28;7.25;;;6.63;;
53666;SDS011;39568;51.026;5.468;2023-05-07T00:38:56;6.13;;;5.68;;
53666;SDS011;39568;51.026;5.468;2023-05-07T00:43:53;10.40;;;6.95;;
53666;SDS011;39568;51.026;5.468;2023-05-07T00:46:21;7.35;;;6.65;;
53666;SDS011;39568;51.026;5.468;2023-05-07T00:48:49;7.18;;;6.65;;
53666;SDS011;39568;51.026;5.468;2023-05-07T00:51:21;8.85;;;6.60;;
53666;SDS011;39568;51.026;5.468;2023-05-07T00:53:48;8.15;;;7.43;;
53666;SDS011;39568;51.026;5.468;2023-05-07T00:56:16;12.23;;;8.52;;
53666;SDS011;39568;51.026;5.468;2023-05-07T00:58:47;10.45;;;8.10;;
53666;SDS011;39568;51.026;5.468;2023-05-07T01:01:14;11.65;;;6.82;;
53666;SDS011;39568;51.026;5.468;2023-05-07T01:03:46;7.80;;;7.05;;
53666;SDS011;39568;51.026;5.468;2023-05-07T01:06:16;10.35;;;6.28;;
53666;SDS011;39568;51.026;5.468;2023-05-07T01:08:48;8.52;;;7.32;;
53666;SDS011;39568;51.026;5.468;2023-05-07T01:11:20;6.78;;;6.18;;
53666;SDS011;39568;51.026;5.468;2023-05-07T01:14:02;7.95;;;6.43;;
53666;SDS011;39568;51.026;5.468;2023-05-07T01:16:37;8.90;;;6.80;;
53666;SDS011;39568;51.026;5.468;2023-05-07T01:19:08;6.82;;;6.25;;
53666;SDS011;39568;51.026;5.468;2023-05-07T01:21:36;8.50;;;6.35;;
53666;SDS011;39568;51.026;5.468;2023-05-07T01:24:06;5.97;;;5.47;;
53666;SDS011;39568;51.026;5.468;2023-05-07T01:26:37;6.78;;;6.07;;
53666;SDS011;39568;51.026;5.468;2023-05-07T01:29:05;12.70;;;5.53;;
53666;SDS011;39568;51.026;5.468;2023-05-07T01:31:32;11.02;;;6.47;;
53666;SDS011;39568;51.026;5.468;2023-05-07T01:34:02;6.80;;;5.97;;
53666;SDS011;39568;51.026;5.468;2023-05-07T01:36:32;8.75;;;5.70;;
53666;SDS011;39568;51.026;5.468;2023-05-07T01:39:08;5.90;;;5.50;;
53666;SDS011;39568;51.026;5.468;2023-05-07T01:41:35;5.82;;;5.32;;
53666;SDS011;39568;51.026;5.468;2023-05-07T01:44:06;10.65;;;6.18;;
53666;SDS011;39568;51.026;5.468;2023-05-07T01:46:35;7.70;;;5.32;;
53666;SDS011;39568;51.026;5.468;2023-05-07T01:49:09;9.15;;;6.18;;
53666;SDS011;39568;51.026;5.468;2023-05-07T01:51:38;6.85;;;6.35;;
53666;SDS011;39568;51.026;5.468;2023-05-07T01:54:06;11.50;;;6.80;;
53666;SDS011;39568;51.026;5.468;2023-05-07T01:56:39;6.65;;;6.05;;
53666;SDS011;39568;51.026;5.468;2023-05-07T01:59:13;10.32;;;6.70;;
53666;SDS011;39568;51.026;5.468;2023-05-07T02:01:39;11.35;;;6.05;;
53666;SDS011;39568;51.026;5.468;2023-05-07T02:04:06;9.23;;;6.15;;
53666;SDS011;39568;51.026;5.468;2023-05-07T02:06:32;8.60;;;6.47;;
53666;SDS011;39568;51.026;5.468;2023-05-07T02:09:00;8.43;;;6.43;;
53666;SDS011;39568;51.026;5.468;2023-05-07T02:11:28;8.50;;;7.20;;
53666;SDS011;39568;51.026;5.468;2023-05-07T02:13:58;6.97;;;6.47;;
53666;SDS011;39568;51.026;5.468;2023-05-07T02:16:28;11.07;;;6.85;;
53666;SDS011;39568;51.026;5.468;2023-05-07T02:19:04;13.73;;;6.40;;
53666;SDS011;39568;51.026;5.468;2023-05-07T02:21:33;7.65;;;6.65;;
53666;SDS011;39568;51.026;5.468;2023-05-07T02:24:08;9.90;;;7.05;;
53666;SDS011;39568;51.026;5.468;2023-05-07T02:26:35;10.82;;;7.13;;
53666;SDS011;39568;51.026;5.468;2023-05-07T02:29:05;11.02;;;6.72;;
53666;SDS011;39568;51.026;5.468;2023-05-07T02:31:32;14.18;;;7.38;;
53666;SDS011;39568;51.026;5.468;2023-05-07T02:33:59;7.93;;;6.65;;
53666;SDS011;39568;51.026;5.468;2023-05-07T02:36:42;13.90;;;7.13;;
53666;SDS011;39568;51.026;5.468;2023-05-07T02:39:09;10.50;;;7.18;;
53666;SDS011;39568;51.026;5.468;2023-05-07T02:41:36;10.38;;;7.18;;
53666;SDS011;39568;51.026;5.468;2023-05-07T02:44:04;7.25;;;6.60;;
53666;SDS011;39568;51.026;5.468;2023-05-07T02:46:31;8.30;;;7.55;;
53666;SDS011;39568;51.026;5.468;2023-05-07T02:48:59;11.55;;;7.18;;
53666;SDS011;39568;51.026;5.468;2023-05-07T02:51:39;15.88;;;7.20;;
53666;SDS011;39568;51.026;5.468;2023-05-07T02:54:05;9.18;;;7.57;;
53666;SDS011;39568;51.026;5.468;2023-05-07T02:56:32;7.88;;;7.00;;
53666;SDS011;39568;51.026;5.468;2023-05-07T02:59:01;10.77;;;7.22;;
53666;SDS011;39568;51.026;5.468;2023-05-07T03:01:30;16.60;;;8.13;;
53666;SDS011;39568;51.026;5.468;2023-05-07T03:04:09;8.02;;;7.13;;
53666;SDS011;39568;51.026;5.468;2023-05-07T03:06:37;9.85;;;6.65;;
53666;SDS011;39568;51.026;5.468;2023-05-07T03:09:07;15.52;;;8.48;;
53666;SDS011;39568;51.026;5.468;2023-05-07T03:11:39;8.20;;;7.18;;
53666;SDS011;39568;51.026;5.468;2023-05-07T03:14:09;12.98;;;8.38;;
53666;SDS011;39568;51.026;5.468;2023-05-07T03:16:56;8.73;;;7.22;;
53666;SDS011;39568;51.026;5.468;2023-05-07T03:19:23;8.57;;;7.78;;
53666;SDS011;39568;51.026;5.468;2023-05-07T03:21:50;10.07;;;7.18;;
53666;SDS011;39568;51.026;5.468;2023-05-07T03:24:17;8.55;;;7.40;;
53666;SDS011;39568;51.026;5.468;2023-05-07T03:26:43;11.25;;;7.43;;
53666;SDS011;39568;51.026;5.468;2023-05-07T03:29:13;10.38;;;8.13;;
53666;SDS011;39568;51.026;5.468;2023-05-07T03:31:40;10.65;;;7.55;;
53666;SDS011;39568;51.026;5.468;2023-05-07T03:34:08;11.85;;;8.60;;
53666;SDS011;39568;51.026;5.468;2023-05-07T03:36:35;8.80;;;7.68;;
53666;SDS011;39568;51.026;5.468;2023-05-07T03:39:04;13.98;;;8.48;;
53666;SDS011;39568;51.026;5.468;2023-05-07T03:41:32;15.88;;;8.35;;
53666;SDS011;39568;51.026;5.468;2023-05-07T03:43:58;11.13;;;8.05;;
53666;SDS011;39568;51.026;5.468;2023-05-07T03:46:25;9.82;;;8.32;;
53666;SDS011;39568;51.026;5.468;2023-05-07T03:48:55;8.43;;;7.55;;
53666;SDS011;39568;51.026;5.468;2023-05-07T03:51:33;14.63;;;8.07;;
53666;SDS011;39568;51.026;5.468;2023-05-07T03:54:01;10.52;;;7.70;;
53666;SDS011;39568;51.026;5.468;2023-05-07T03:56:27;9.48;;;7.35;;
53666;SDS011;39568;51.026;5.468;2023-05-07T03:59:01;7.68;;;6.88;;
53666;SDS011;39568;51.026;5.468;2023-05-07T04:01:44;15.60;;;7.65;;
53666;SDS011;39568;51.026;5.468;2023-05-07T04:04:11;12.57;;;7.28;;
53666;SDS011;39568;51.026;5.468;2023-05-07T04:06:46;10.07;;;7.45;;
53666;SDS011;39568;51.026;5.468;2023-05-07T04:09:13;16.63;;;8.35;;
53666;SDS011;39568;51.026;5.468;2023-05-07T04:11:42;8.38;;;7.57;;
53666;SDS011;39568;51.026;5.468;2023-05-07T04:14:10;8.80;;;7.93;;
53666;SDS011;39568;51.026;5.468;2023-05-07T04:16:37;11.70;;;8.25;;
53666;SDS011;39568;51.026;5.468;2023-05-07T04:19:09;15.48;;;8.27;;
53666;SDS011;39568;51.026;5.468;2023-05-07T04:21:38;10.38;;;7.22;;
53666;SDS011;39568;51.026;5.468;2023-05-07T04:24:06;18.63;;;7.90;;
53666;SDS011;39568;51.026;5.468;2023-05-07T04:26:33;13.15;;;8.55;;
53666;SDS011;39568;51.026;5.468;2023-05-07T04:29:00;11.43;;;8.05;;
53666;SDS011;39568;51.026;5.468;2023-05-07T04:31:27;14.30;;;7.68;;
53666;SDS011;39568;51.026;5.468;2023-05-07T04:33:53;8.52;;;7.72;;
53666;SDS011;39568;51.026;5.468;2023-05-07T04:36:20;11.80;;;6.80;;
53666;SDS011;39568;51.026;5.468;2023-05-07T04:38:47;12.18;;;7.30;;
53666;SDS011;39568;51.026;5.468;2023-05-07T04:41:15;11.68;;;6.65;;
53666;SDS011;39568;51.026;5.468;2023-05-07T04:43:42;11.18;;;7.80;;
53666;SDS011;39568;51.026;5.468;2023-05-07T04:46:09;10.40;;;6.90;;
53666;SDS011;39568;51.026;5.468;2023-05-07T04:48:35;11.52;;;6.93;;
53666;SDS011;39568;51.026;5.468;2023-05-07T04:51:02;9.10;;;7.75;;
53666;SDS011;39568;51.026;5.468;2023-05-07T04:53:29;7.90;;;6.90;;
53666;SDS011;39568;51.026;5.468;2023-05-07T04:55:57;11.02;;;6.90;;
53666;SDS011;39568;51.026;5.468;2023-05-07T04:58:26;12.77;;;7.32;;
53666;SDS011;39568;51.026;5.468;2023-05-07T05:00:56;7.25;;;6.50;;
53666;SDS011;39568;51.026;5.468;2023-05-07T05:03:23;7.50;;;6.88;;
53666;SDS011;39568;51.026;5.468;2023-05-07T05:05:50;9.10;;;6.70;;
53666;SDS011;39568;51.026;5.468;2023-05-07T05:08:17;10.85;;;7.25;;
53666;SDS011;39568;51.026;5.468;2023-05-07T05:10:49;11.15;;;6.47;;
53666;SDS011;39568;51.026;5.468;2023-05-07T05:13:16;12.48;;;7.40;;
53666;SDS011;39568;51.026;5.468;2023-05-07T05:15:48;7.43;;;6.40;;
53666;SDS011;39568;51.026;5.468;2023-05-07T05:18:17;21.40;;;7.43;;
53666;SDS011;39568;51.026;5.468;2023-05-07T05:20:43;9.43;;;7.60;;
53666;SDS011;39568;51.026;5.468;2023-05-07T05:23:10;7.50;;;6.80;;
53666;SDS011;39568;51.026;5.468;2023-05-07T05:25:39;8.60;;;5.97;;
53666;SDS011;39568;51.026;5.468;2023-05-07T05:28:07;7.93;;;6.65;;
53666;SDS011;39568;51.026;5.468;2023-05-07T05:30:33;9.32;;;6.60;;
53666;SDS011;39568;51.026;5.468;2023-05-07T05:33:01;8.68;;;6.18;;
53666;SDS011;39568;51.026;5.468;2023-05-07T05:35:31;7.20;;;6.00;;
53666;SDS011;39568;51.026;5.468;2023-05-07T05:37:57;9.88;;;6.40;;
53666;SDS011;39568;51.026;5.468;2023-05-07T05:40:24;7.50;;;5.32;;
53666;SDS011;39568;51.026;5.468;2023-05-07T05:42:51;11.60;;;6.20;;
53666;SDS011;39568;51.026;5.468;2023-05-07T05:45:19;10.38;;;6.53;;
53666;SDS011;39568;51.026;5.468;2023-05-07T05:47:46;6.95;;;5.65;;
53666;SDS011;39568;51.026;5.468;2023-05-07T05:50:16;9.70;;;5.10;;
53666;SDS011;39568;51.026;5.468;2023-05-07T05:52:43;5.45;;;5.05;;
53666;SDS011;39568;51.026;5.468;2023-05-07T05:55:10;5.65;;;5.18;;
53666;SDS011;39568;51.026;5.468;2023-05-07T05:57:36;10.13;;;5.78;;
53666;SDS011;39568;51.026;5.468;2023-05-07T06:00:07;5.55;;;4.93;;
53666;SDS011;39568;51.026;5.468;2023-05-07T06:02:36;7.85;;;5.20;;
53666;SDS011;39568;51.026;5.468;2023-05-07T06:05:03;6.63;;;4.88;;
53666;SDS011;39568;51.026;5.468;2023-05-07T06:07:32;7.97;;;4.07;;
53666;SDS011;39568;51.026;5.468;2023-05-07T06:09:59;6.13;;;5.18;;
53666;SDS011;39568;51.026;5.468;2023-05-07T06:12:27;4.90;;;4.35;;
53666;SDS011;39568;51.026;5.468;2023-05-07T06:14:54;11.23;;;5.05;;
53666;SDS011;39568;51.026;5.468;2023-05-07T06:17:20;5.60;;;4.82;;
53666;SDS011;39568;51.026;5.468;2023-05-07T06:19:47;5.50;;;4.80;;
53666;SDS011;39568;51.026;5.468;2023-05-07T06:22:14;10.18;;;4.57;;
53666;SDS011;39568;51.026;5.468;2023-05-07T06:24:42;5.60;;;4.35;;
53666;SDS011;39568;51.026;5.468;2023-05-07T06:27:09;5.70;;;3.95;;
53666;SDS011;39568;51.026;5.468;2023-05-07T06:29:36;4.32;;;4.03;;
53666;SDS011;39568;51.026;5.468;2023-05-07T06:32:06;7.13;;;4.13;;
53666;SDS011;39568;51.026;5.468;2023-05-07T06:34:33;4.50;;;3.63;;
53666;SDS011;39568;51.026;5.468;2023-05-07T06:37:05;7.88;;;3.90;;
53666;SDS011;39568;51.026;5.468;2023-05-07T06:39:32;7.30;;;4.28;;
53666;SDS011;39568;51.026;5.468;2023-05-07T06:42:00;12.48;;;3.85;;
53666;SDS011;39568;51.026;5.468;2023-05-07T06:44:30;4.55;;;4.18;;
53666;SDS011;39568;51.026;5.468;2023-05-07T06:46:57;6.55;;;4.03;;
53666;SDS011;39568;51.026;5.468;2023-05-07T06:49:24;6.97;;;4.15;;
53666;SDS011;39568;51.026;5.468;2023-05-07T06:51:50;6.82;;;4.78;;
53666;SDS011;39568;51.026;5.468;2023-05-07T06:54:18;7.55;;;3.88;;
53666;SDS011;39568;51.026;5.468;2023-05-07T06:56:48;12.55;;;4.18;;
53666;SDS011;39568;51.026;5.468;2023-05-07T06:59:16;7.97;;;3.97;;
53666;SDS011;39568;51.026;5.468;2023-05-07T07:01:45;9.80;;;4.03;;
53666;SDS011;39568;51.026;5.468;2023-05-07T07:04:13;3.88;;;3.53;;
53666;SDS011;39568;51.026;5.468;2023-05-07T07:06:40;5.20;;;3.35;;
53666;SDS011;39568;51.026;5.468;2023-05-07T07:09:07;6.15;;;3.72;;
53666;SDS011;39568;51.026;5.468;2023-05-07T07:11:33;7.05;;;2.90;;
53666;SDS011;39568;51.026;5.468;2023-05-07T07:14:01;3.05;;;2.80;;
53666;SDS011;39568;51.026;5.468;2023-05-07T07:16:32;3.45;;;3.25;;
53666;SDS011;39568;51.026;5.468;2023-05-07T07:18:59;3.88;;;2.92;;
53666;SDS011;39568;51.026;5.468;2023-05-07T07:21:26;4.00;;;3.42;;
53666;SDS011;39568;51.026;5.468;2023-05-07T07:23:56;8.18;;;3.47;;
53666;SDS011;39568;51.026;5.468;2023-05-07T07:26:26;7.65;;;3.47;;
53666;SDS011;39568;51.026;5.468;2023-05-07T07:28:52;7.07;;;2.67;;
53666;SDS011;39568;51.026;5.468;2023-05-07T07:31:19;9.25;;;3.85;;
53666;SDS011;39568;51.026;5.468;2023-05-07T07:33:47;4.28;;;3.28;;
53666;SDS011;39568;51.026;5.468;2023-05-07T07:36:15;3.63;;;2.95;;
53666;SDS011;39568;51.026;5.468;2023-05-07T07:38:42;5.25;;;3.15;;
53666;SDS011;39568;51.026;5.468;2023-05-07T07:41:08;4.00;;;3.03;;
53666;SDS011;39568;51.026;5.468;2023-05-07T07:43:38;5.18;;;3.05;;
53666;SDS011;39568;51.026;5.468;2023-05-07T07:46:04;5.95;;;3.13;;
53666;SDS011;39568;51.026;5.468;2023-05-07T07:48:32;5.35;;;3.42;;
53666;SDS011;39568;51.026;5.468;2023-05-07T07:51:09;2.95;;;2.53;;
53666;SDS011;39568;51.026;5.468;2023-05-07T07:53:36;6.22;;;2.63;;
53666;SDS011;39568;51.026;5.468;2023-05-07T07:56:02;3.90;;;2.58;;
53666;SDS011;39568;51.026;5.468;2023-05-07T07:58:29;3.08;;;2.47;;
53666;SDS011;39568;51.026;5.468;2023-05-07T08:00:56;2.65;;;2.25;;
53666;SDS011;39568;51.026;5.468;2023-05-07T08:03:23;7.10;;;2.83;;
53666;SDS011;39568;51.026;5.468;2023-05-07T08:05:50;5.30;;;2.35;;
53666;SDS011;39568;51.026;5.468;2023-05-07T08:08:18;3.90;;;2.10;;
53666;SDS011;39568;51.026;5.468;2023-05-07T08:10:45;10.80;;;2.17;;
53666;SDS011;39568;51.026;5.468;2023-05-07T08:13:15;1.98;;;1.88;;
53666;SDS011;39568;51.026;5.468;2023-05-07T08:15:41;3.38;;;1.92;;
53666;SDS011;39568;51.026;5.468;2023-05-07T08:18:08;5.28;;;2.08;;
53666;SDS011;39568;51.026;5.468;2023-05-07T08:20:35;6.65;;;1.85;;
53666;SDS011;39568;51.026;5.468;2023-05-07T08:23:04;7.15;;;2.22;;
53666;SDS011;39568;51.026;5.468;2023-05-07T08:25:34;6.03;;;1.90;;
53666;SDS011;39568;51.026;5.468;2023-05-07T08:28:01;2.53;;;1.95;;
53666;SDS011;39568;51.026;5.468;2023-05-07T08:30:31;6.10;;;1.92;;
53666;SDS011;39568;51.026;5.468;2023-05-07T08:32:58;11.73;;;2.28;;
53666;SDS011;39568;51.026;5.468;2023-05-07T08:35:24;7.95;;;2.22;;
53666;SDS011;39568;51.026;5.468;2023-05-07T08:37:52;4.93;;;1.58;;
53666;SDS011;39568;51.026;5.468;2023-05-07T08:40:18;2.88;;;1.73;;
53666;SDS011;39568;51.026;5.468;2023-05-07T08:42:56;4.75;;;1.75;;
53666;SDS011;39568;51.026;5.468;2023-05-07T08:45:23;3.63;;;1.85;;
53666;SDS011;39568;51.026;5.468;2023-05-07T08:47:52;5.72;;;1.58;;
53666;SDS011;39568;51.026;5.468;2023-05-07T08:50:24;5.45;;;1.95;;
53666;SDS011;39568;51.026;5.468;2023-05-07T08:52:51;2.90;;;1.35;;
53666;SDS011;39568;51.026;5.468;2023-05-07T08:55:21;4.65;;;2.30;;
53666;SDS011;39568;51.026;5.468;2023-05-07T08:57:50;4.43;;;1.77;;
53666;SDS011;39568;51.026;5.468;2023-05-07T09:00:19;3.13;;;2.25;;
53666;SDS011;39568;51.026;5.468;2023-05-07T09:02:46;6.88;;;1.50;;
53666;SDS011;39568;51.026;5.468;2023-05-07T09:07:43;8.48;;;1.80;;
53666;SDS011;39568;51.026;5.468;2023-05-07T09:10:11;5.95;;;2.08;;
53666;SDS011;39568;51.026;5.468;2023-05-07T09:12:38;4.03;;;1.75;;
53666;SDS011;39568;51.026;5.468;2023-05-07T09:15:06;5.90;;;1.65;;
53666;SDS011;39568;51.026;5.468;2023-05-07T09:17:35;4.63;;;1.85;;
53666;SDS011;39568;51.026;5.468;2023-05-07T09:20:07;3.08;;;1.75;;
53666;SDS011;39568;51.026;5.468;2023-05-07T09:22:36;4.35;;;2.03;;
53666;SDS011;39568;51.026;5.468;2023-05-07T09:25:03;5.35;;;1.83;;
53666;SDS011;39568;51.026;5.468;2023-05-07T09:27:30;1.65;;;1.55;;
53666;SDS011;39568;51.026;5.468;2023-05-07T09:29:58;2.13;;;1.90;;
53666;SDS011;39568;51.026;5.468;2023-05-07T09:32:28;2.35;;;1.63;;
53666;SDS011;39568;51.026;5.468;2023-05-07T09:35:06;9.50;;;1.80;;
53666;SDS011;39568;51.026;5.468;2023-05-07T09:37:41;5.18;;;1.98;;
53666;SDS011;39568;51.026;5.468;2023-05-07T09:40:08;4.82;;;2.72;;
53666;SDS011;39568;51.026;5.468;2023-05-07T09:42:47;6.47;;;2.55;;
53666;SDS011;39568;51.026;5.468;2023-05-07T09:45:14;4.47;;;2.22;;
53666;SDS011;39568;51.026;5.468;2023-05-07T09:47:43;2.17;;;1.85;;
53666;SDS011;39568;51.026;5.468;2023-05-07T09:50:11;9.82;;;2.47;;
53666;SDS011;39568;51.026;5.468;2023-05-07T09:52:39;3.20;;;2.03;;
53666;SDS011;39568;51.026;5.468;2023-05-07T09:55:07;5.72;;;1.85;;
53666;SDS011;39568;51.026;5.468;2023-05-07T09:57:35;2.72;;;1.75;;
53666;SDS011;39568;51.026;5.468;2023-05-07T10:00:03;2.33;;;1.70;;
53666;SDS011;39568;51.026;5.468;2023-05-07T10:02:33;2.88;;;1.58;;
53666;SDS011;39568;51.026;5.468;2023-05-07T10:05:04;8.35;;;2.03;;
53666;SDS011;39568;51.026;5.468;2023-05-07T10:07:31;3.38;;;1.60;;
53666;SDS011;39568;51.026;5.468;2023-05-07T10:09:58;9.23;;;1.98;;
53666;SDS011;39568;51.026;5.468;2023-05-07T10:12:26;5.82;;;2.38;;
53666;SDS011;39568;51.026;5.468;2023-05-07T10:15:02;7.82;;;1.70;;
53666;SDS011;39568;51.026;5.468;2023-05-07T10:17:32;6.03;;;1.75;;
53666;SDS011;39568;51.026;5.468;2023-05-07T10:20:04;4.28;;;1.98;;
53666;SDS011;39568;51.026;5.468;2023-05-07T10:22:36;1.55;;;1.45;;
53666;SDS011;39568;51.026;5.468;2023-05-07T10:25:04;6.18;;;2.38;;
53666;SDS011;39568;51.026;5.468;2023-05-07T10:27:36;5.43;;;2.25;;
53666;SDS011;39568;51.026;5.468;2023-05-07T10:30:06;4.55;;;2.47;;
53666;SDS011;39568;51.026;5.468;2023-05-07T10:32:42;2.80;;;2.60;;
53666;SDS011;39568;51.026;5.468;2023-05-07T10:35:14;10.02;;;3.22;;
53666;SDS011;39568;51.026;5.468;2023-05-07T10:37:43;2.75;;;2.55;;
53666;SDS011;39568;51.026;5.468;2023-05-07T10:40:11;3.83;;;2.50;;
53666;SDS011;39568;51.026;5.468;2023-05-07T10:42:39;6.75;;;2.70;;
53666;SDS011;39568;51.026;5.468;2023-05-07T10:45:20;8.77;;;2.67;;
53666;SDS011;39568;51.026;5.468;2023-05-07T10:48:07;5.97;;;2.92;;
53666;SDS011;39568;51.026;5.468;2023-05-07T10:50:42;5.22;;;2.65;;
53666;SDS011;39568;51.026;5.468;2023-05-07T10:53:20;3.50;;;2.60;;
53666;SDS011;39568;51.026;5.468;2023-05-07T10:55:52;3.00;;;2.80;;
53666;SDS011;39568;51.026;5.468;2023-05-07T10:58:53;6.88;;;3.33;;
53666;SDS011;39568;51.026;5.468;2023-05-07T11:01:51;8.13;;;3.67;;
53666;SDS011;39568;51.026;5.468;2023-05-07T11:04:19;7.15;;;4.15;;
53666;SDS011;39568;51.026;5.468;2023-05-07T11:09:59;4.20;;;3.58;;
53666;SDS011;39568;51.026;5.468;2023-05-07T11:12:49;4.22;;;3.83;;
53666;SDS011;39568;51.026;5.468;2023-05-07T11:18:04;12.48;;;4.45;;
53666;SDS011;39568;51.026;5.468;2023-05-07T11:20:45;7.05;;;3.72;;
53666;SDS011;39568;51.026;5.468;2023-05-07T11:26:12;8.88;;;5.97;;
53666;SDS011;39568;51.026;5.468;2023-05-07T11:28:41;7.38;;;4.88;;
53666;SDS011;39568;51.026;5.468;2023-05-07T11:31:09;6.47;;;3.78;;
53666;SDS011;39568;51.026;5.468;2023-05-07T11:33:37;7.03;;;4.95;;
53666;SDS011;39568;51.026;5.468;2023-05-07T11:36:05;8.65;;;3.58;;
53666;SDS011;39568;51.026;5.468;2023-05-07T11:38:34;11.57;;;5.70;;
53666;SDS011;39568;51.026;5.468;2023-05-07T11:41:02;6.10;;;4.20;;
53666;SDS011;39568;51.026;5.468;2023-05-07T11:43:36;5.75;;;4.00;;
53666;SDS011;39568;51.026;5.468;2023-05-07T11:46:06;8.35;;;4.72;;
53666;SDS011;39568;51.026;5.468;2023-05-07T11:48:35;10.27;;;3.42;;
53666;SDS011;39568;51.026;5.468;2023-05-07T11:51:02;10.48;;;6.88;;
53666;SDS011;39568;51.026;5.468;2023-05-07T11:53:38;11.40;;;5.18;;
53666;SDS011;39568;51.026;5.468;2023-05-07T11:56:06;10.02;;;5.30;;
53666;SDS011;39568;51.026;5.468;2023-05-07T11:58:36;6.68;;;4.05;;
53666;SDS011;39568;51.026;5.468;2023-05-07T12:01:07;6.55;;;4.97;;
53666;SDS011;39568;51.026;5.468;2023-05-07T12:03:35;13.40;;;5.37;;
53666;SDS011;39568;51.026;5.468;2023-05-07T12:06:05;13.77;;;6.38;;
53666;SDS011;39568;51.026;5.468;2023-05-07T12:08:32;9.45;;;5.35;;
53666;SDS011;39568;51.026;5.468;2023-05-07T12:11:02;8.57;;;4.88;;
53666;SDS011;39568;51.026;5.468;2023-05-07T12:13:28;4.55;;;3.20;;
53666;SDS011;39568;51.026;5.468;2023-05-07T12:15:56;8.00;;;2.72;;
53666;SDS011;39568;51.026;5.468;2023-05-07T12:18:25;6.80;;;3.03;;
53666;SDS011;39568;51.026;5.468;2023-05-07T12:20:57;7.18;;;3.70;;
53666;SDS011;39568;51.026;5.468;2023-05-07T12:23:25;10.13;;;3.60;;
53666;SDS011;39568;51.026;5.468;2023-05-07T12:25:52;10.63;;;5.10;;
53666;SDS011;39568;51.026;5.468;2023-05-07T12:28:19;6.65;;;4.20;;
53666;SDS011;39568;51.026;5.468;2023-05-07T12:30:49;9.07;;;3.05;;
53666;SDS011;39568;51.026;5.468;2023-05-07T12:33:19;4.50;;;2.60;;
53666;SDS011;39568;51.026;5.468;2023-05-07T12:35:53;13.55;;;3.70;;
53666;SDS011;39568;51.026;5.468;2023-05-07T12:38:32;7.43;;;3.05;;
53666;SDS011;39568;51.026;5.468;2023-05-07T12:41:02;4.68;;;3.03;;
53666;SDS011;39568;51.026;5.468;2023-05-07T12:43:30;6.03;;;3.05;;
53666;SDS011;39568;51.026;5.468;2023-05-07T12:45:57;7.75;;;4.93;;
53666;SDS011;39568;51.026;5.468;2023-05-07T12:48:27;7.38;;;4.35;;
53666;SDS011;39568;51.026;5.468;2023-05-07T12:50:54;7.43;;;4.53;;
53666;SDS011;39568;51.026;5.468;2023-05-07T12:53:22;5.95;;;3.65;;
53666;SDS011;39568;51.026;5.468;2023-05-07T12:55:50;9.93;;;4.10;;
53666;SDS011;39568;51.026;5.468;2023-05-07T12:58:18;8.13;;;2.30;;
53666;SDS011;39568;51.026;5.468;2023-05-07T13:00:47;4.43;;;3.28;;
53666;SDS011;39568;51.026;5.468;2023-05-07T13:03:20;5.32;;;3.10;;
53666;SDS011;39568;51.026;5.468;2023-05-07T13:05:50;11.55;;;3.33;;
53666;SDS011;39568;51.026;5.468;2023-05-07T13:08:23;6.57;;;2.63;;
53666;SDS011;39568;51.026;5.468;2023-05-07T13:10:54;4.75;;;3.20;;
53666;SDS011;39568;51.026;5.468;2023-05-07T13:13:28;8.07;;;3.40;;
53666;SDS011;39568;51.026;5.468;2023-05-07T13:15:55;5.07;;;2.35;;
53666;SDS011;39568;51.026;5.468;2023-05-07T13:18:22;3.45;;;2.10;;
53666;SDS011;39568;51.026;5.468;2023-05-07T13:20:52;5.80;;;2.75;;
53666;SDS011;39568;51.026;5.468;2023-05-07T13:23:22;8.43;;;2.38;;
53666;SDS011;39568;51.026;5.468;2023-05-07T13:25:49;2.90;;;1.85;;
53666;SDS011;39568;51.026;5.468;2023-05-07T13:28:17;1.30;;;1.20;;
53666;SDS011;39568;51.026;5.468;2023-05-07T13:30:44;2.63;;;2.08;;
53666;SDS011;39568;51.026;5.468;2023-05-07T13:33:11;6.70;;;2.60;;
53666;SDS011;39568;51.026;5.468;2023-05-07T13:35:39;3.22;;;1.90;;
53666;SDS011;39568;51.026;5.468;2023-05-07T13:38:10;2.67;;;1.58;;
53666;SDS011;39568;51.026;5.468;2023-05-07T13:40:37;3.33;;;2.63;;
53666;SDS011;39568;51.026;5.468;2023-05-07T13:43:05;2.47;;;1.92;;
53666;SDS011;39568;51.026;5.468;2023-05-07T13:45:32;10.52;;;2.30;;
53666;SDS011;39568;51.026;5.468;2023-05-07T13:47:58;8.27;;;2.50;;
53666;SDS011;39568;51.026;5.468;2023-05-07T13:50:25;5.38;;;2.88;;
53666;SDS011;39568;51.026;5.468;2023-05-07T13:52:54;5.63;;;2.42;;
53666;SDS011;39568;51.026;5.468;2023-05-07T13:55:23;5.05;;;3.05;;
53666;SDS011;39568;51.026;5.468;2023-05-07T13:57:54;8.45;;;2.60;;
53666;SDS011;39568;51.026;5.468;2023-05-07T14:00:22;5.85;;;2.47;;
53666;SDS011;39568;51.026;5.468;2023-05-07T14:02:49;5.88;;;2.42;;
53666;SDS011;39568;51.026;5.468;2023-05-07T14:05:16;7.50;;;2.50;;
53666;SDS011;39568;51.026;5.468;2023-05-07T14:07:43;2.15;;;1.98;;
53666;SDS011;39568;51.026;5.468;2023-05-07T14:10:10;8.95;;;2.38;;
53666;SDS011;39568;51.026;5.468;2023-05-07T14:12:39;7.15;;;1.70;;
53666;SDS011;39568;51.026;5.468;2023-05-07T14:15:06;2.55;;;1.50;;
53666;SDS011;39568;51.026;5.468;2023-05-07T14:20:12;6.43;;;1.60;;
53666;SDS011;39568;51.026;5.468;2023-05-07T14:22:41;6.97;;;1.48;;
53666;SDS011;39568;51.026;5.468;2023-05-07T14:25:10;4.80;;;1.50;;
53666;SDS011;39568;51.026;5.468;2023-05-07T14:27:37;3.78;;;1.50;;
53666;SDS011;39568;51.026;5.468;2023-05-07T14:30:05;4.32;;;1.38;;
53666;SDS011;39568;51.026;5.468;2023-05-07T14:32:33;3.63;;;1.08;;
53666;SDS011;39568;51.026;5.468;2023-05-07T14:35:00;2.97;;;1.05;;
53666;SDS011;39568;51.026;5.468;2023-05-07T14:37:26;2.75;;;1.40;;
53666;SDS011;39568;51.026;5.468;2023-05-07T14:39:53;3.38;;;1.50;;
53666;SDS011;39568;51.026;5.468;2023-05-07T14:42:20;5.75;;;1.63;;
53666;SDS011;39568;51.026;5.468;2023-05-07T14:44:46;3.42;;;1.60;;
53666;SDS011;39568;51.026;5.468;2023-05-07T14:47:14;1.88;;;1.30;;
53666;SDS011;39568;51.026;5.468;2023-05-07T14:49:41;5.60;;;1.60;;
53666;SDS011;39568;51.026;5.468;2023-05-07T14:52:08;7.82;;;1.40;;
53666;SDS011;39568;51.026;5.468;2023-05-07T14:54:39;7.07;;;1.80;;
53666;SDS011;39568;51.026;5.468;2023-05-07T14:57:06;2.25;;;1.65;;
53666;SDS011;39568;51.026;5.468;2023-05-07T14:59:34;4.30;;;1.40;;
53666;SDS011;39568;51.026;5.468;2023-05-07T15:02:01;5.95;;;1.42;;
53666;SDS011;39568;51.026;5.468;2023-05-07T15:04:29;4.82;;;1.38;;
53666;SDS011;39568;51.026;5.468;2023-05-07T15:06:56;4.43;;;1.52;;
53666;SDS011;39568;51.026;5.468;2023-05-07T15:09:29;5.57;;;1.73;;
53666;SDS011;39568;51.026;5.468;2023-05-07T15:11:56;7.50;;;1.70;;
53666;SDS011;39568;51.026;5.468;2023-05-07T15:14:29;9.48;;;1.85;;